עמוד ראשי
תמונות לווין תחזית 10-יוםאקליםתחזית ים סופות טרופיות ברקים שדות תעופהשאלות נפוצות עלון אודות
מזג אוויר : אירופה אפריקה אמריקה הצפונית אמריקה הדרומית אסיה אוסטרליה-אוקיאניה אחרים
שפות איש קשר

זלצבורג, אוסטריה

קו רוחב: 47-48N, קו אורך: 013-00E, גובה: 430מטר


METAR: LOWS 010050Z AUTO 20004KT 9999 NCD 12/10 Q1014
TAF: LOWS 312315Z 0100/0124 15005KT CAVOK TX27/0112Z TN13/0103Z BECMG 0107/0109 34007KT 9999 FEW070 SCT300 TEMPO 0115/0118 FEW070CB BKN300 TEMPO 0118/0124 27010KT SHRA SCT030 BKN050

זמן: 03:24 (01:24 UTC)

תצפית מזג אוויר נוכחית

הדו"ח נערך לפני 34דקות, בשעה 00:50 UTC
רוח 4קשר מכיוון דרום/דרום-מערב
טמפרטורת 12 צלסיוס
לחות 88%
לחץ 1014 hPa
ראות 10 קילומטר או יותר

שנה יחידות

תחזית

הדו"ח נערך לפני 2 שעות ו 9דקות, בשעה 23:15 UTC
תחזית בתוקף מ 01 ב 00 UTC עד 01 ב 24 UTC
רוח 5קשר מכיוון דרום/דרום-מזרח
ראות 10 קילומטר או יותר
ללא עננים שבסיסם נמוך מ 1500 רגל או קומולונימבוס
יעשה מ
01 ב 07 UTC עד 01 ב 09 UTC
רוח 7קשר מכיוון צפון/צפון-מערב
ראות 10 קילומטר או יותר
מעט עננים בגובה 7000רגל
עננים פזורים בגובה 30000רגל
זמנית מ -
01 ב 15 UTC עד 01 ב 18 UTC
מעט עננים בגובה 7000רגל , קומולונימבוס.
עננים בינוניים בגובה 30000רגל
זמנית מ -
01 ב 18 UTC עד 01 ב 24 UTC
רוח 10קשר מכיוון מערב
עננים פזורים בגובה 3000רגל
עננים בינוניים בגובה 5000רגל
ממטרי גשם
המידע באתר זה מותנה של תניית פטור
מזג אוויר : אירופה אפריקה אמריקה הצפונית אמריקה הדרומית אסיה אוסטרליה-אוקיאניה אחרים
תמונות לווין תחזית 10-יוםאקליםתחזית ים סופות טרופיות ברקים שדות תעופהשאלות נפוצות שפות איש קשר עלון אודות